Time;durP1;ratioP1;P1;durP2;ratioP2;P2;SDS_P1;SDS_P2;PMS_P1;PMS_P2;Temp;Humidity;BMP_temperature;BMP_pressure;BME280_temperature;BME280_humidity;BME280_pressure;Samples;Min_cycle;Max_cycle;Signal;HPM_P1;HPM_P2
2022/02/10 00:04:07;;;;;;;11.10;7.50;;;;;;;7.70;79.53;100567.16;130282;1268;110818;-79
2022/02/10 00:17:42;;;;;;;11.70;8.20;;;;;;;7.81;79.89;100564.14;130277;1268;106890;-79
2022/02/10 00:20:52;;;;;;;11.30;7.50;;;;;;;7.75;79.86;100564.77;130294;1268;108636;-78
2022/02/10 00:24:27;;;;;;;11.90;7.50;;;;;;;7.76;80.00;100559.59;130285;1267;108895;-80
2022/02/10 00:34:25;;;;;;;12.00;8.70;;;;;;;7.83;80.05;100572.47;130326;1268;108849;-76
2022/02/10 00:37:48;;;;;;;11.00;8.20;;;;;;;7.80;80.24;100577.31;130340;1268;107655;-80
2022/02/10 00:40:54;;;;;;;13.70;9.20;;;;;;;7.78;80.30;100579.75;130404;1268;108764;-79
2022/02/10 00:43:59;;;;;;;14.20;8.50;;;;;;;7.72;80.23;100580.81;130124;1268;339821;-79
2022/02/10 00:47:05;;;;;;;13.50;8.30;;;;;;;7.74;80.33;100581.92;130188;1268;108934;-78
2022/02/10 00:50:11;;;;;;;11.50;8.40;;;;;;;7.75;80.27;100578.58;130299;1267;108117;-79
2022/02/10 00:53:20;;;;;;;13.90;8.80;;;;;;;7.80;80.18;100584.07;130283;1267;108927;-76
2022/02/10 00:56:26;;;;;;;14.00;8.50;;;;;;;7.87;80.09;100582.23;130377;1267;108712;-79
2022/02/10 00:59:42;;;;;;;13.00;9.10;;;;;;;7.91;80.34;100576.58;130320;1267;108235;-81
2022/02/10 01:13:28;;;;;;;11.60;8.30;;;;;;;7.86;80.55;100573.63;130307;1267;108773;-78
2022/02/10 01:30:09;;;;;;;10.70;7.90;;;;;;;7.86;80.26;100578.59;130302;1267;109165;-75
2022/02/10 01:33:14;;;;;;;11.20;7.80;;;;;;;7.83;80.55;100581.33;130310;1268;108983;-75
2022/02/10 01:36:20;;;;;;;12.10;8.30;;;;;;;7.82;80.74;100575.17;130324;1268;107700;-79
2022/02/10 01:39:31;;;;;;;14.70;9.50;;;;;;;7.86;80.68;100571.71;130356;1267;106864;-77
2022/02/10 01:43:18;;;;;;;11.00;8.20;;;;;;;7.90;80.77;100569.23;130304;1267;108664;-79
2022/02/10 02:03:23;;;;;;;14.50;9.60;;;;;;;7.91;81.10;100562.39;130125;1267;108792;-80
2022/02/10 02:06:40;;;;;;;14.00;9.60;;;;;;;7.96;81.03;100562.55;130326;1267;108735;-78
2022/02/10 02:09:45;;;;;;;13.00;9.30;;;;;;;7.96;81.06;100555.66;130329;1267;108639;-79
2022/02/10 02:12:51;;;;;;;13.10;9.60;;;;;;;7.95;80.90;100560.31;130393;1268;107708;-81
2022/02/10 02:15:57;;;;;;;12.60;8.60;;;;;;;7.90;81.19;100555.60;130343;1267;109243;-79
2022/02/10 02:19:03;;;;;;;11.80;8.10;;;;;;;7.86;81.10;100555.93;130366;1268;109161;-80
2022/02/10 02:22:09;;;;;;;12.70;8.50;;;;;;;7.86;81.35;100561.39;130433;1267;108779;-81
2022/02/10 02:25:15;;;;;;;12.80;9.10;;;;;;;7.90;81.27;100555.48;130596;1268;108705;-80
2022/02/10 02:28:21;;;;;;;12.70;9.30;;;;;;;7.94;81.17;100553.50;130393;1267;108219;-84
2022/02/10 02:31:32;;;;;;;15.20;9.80;;;;;;;7.94;81.24;100549.92;130437;1267;108735;-83
2022/02/10 02:35:13;;;;;;;13.50;10.20;;;;;;;7.92;81.18;100552.06;130313;1267;108985;-79
2022/02/10 02:38:41;;;;;;;11.00;8.10;;;;;;;7.91;81.18;100555.02;130365;1267;108736;-82
2022/02/10 03:05:58;;;;;;;20.50;10.80;;;;;;;7.88;81.24;100540.73;130411;1267;106994;-80
2022/02/10 03:09:08;;;;;;;14.50;9.50;;;;;;;7.90;81.27;100540.23;130304;1267;108605;-80
2022/02/10 03:12:15;;;;;;;15.20;10.30;;;;;;;7.93;81.28;100537.80;130410;1267;108787;-82
2022/02/10 03:15:27;;;;;;;12.90;9.50;;;;;;;7.96;81.44;100544.26;130495;1267;107204;-79
2022/02/10 03:18:41;;;;;;;;;;;;;;;7.97;81.22;100545.74;130423;1268;108541;-78
2022/02/10 03:22:07;;;;;;;14.30;9.90;;;;;;;7.92;81.26;100545.30;130386;1267;107129;-81
2022/02/10 04:02:53;;;;;;;15.20;10.20;;;;;;;8.00;80.98;100523.95;130391;1268;108754;-78
2022/02/10 04:06:27;;;;;;;13.40;9.30;;;;;;;8.04;81.03;100524.52;130433;1267;108648;-78
2022/02/10 04:09:56;;;;;;;13.50;9.50;;;;;;;8.05;80.90;100529.02;130327;1267;108574;-76
2022/02/10 04:13:12;;;;;;;12.20;8.30;;;;;;;8.02;80.76;100531.91;130318;1267;108547;-77
2022/02/10 04:16:21;;;;;;;12.30;8.30;;;;;;;8.00;80.89;100537.21;130337;1267;108653;-78
2022/02/10 04:22:59;;;;;;;12.10;8.20;;;;;;;8.06;80.93;100527.09;130305;1267;108681;-77
2022/02/10 04:26:17;;;;;;;12.70;8.50;;;;;;;8.12;80.82;100525.92;130288;1267;107016;-78
2022/02/10 04:29:43;;;;;;;12.40;8.60;;;;;;;8.14;80.81;100524.02;130315;1267;107370;-78
2022/02/10 04:43:46;;;;;;;11.40;7.60;;;;;;;8.05;80.90;100523.86;130152;1267;110307;-79
2022/02/10 04:57:31;;;;;;;69.00;30.00;;;;;;;8.13;80.85;100540.23;130316;1267;108835;-78
2022/02/10 05:00:53;;;;;;;21.70;12.80;;;;;;;8.10;80.83;100533.71;130339;1267;109753;-77
2022/02/10 05:07:53;;;;;;;93.80;32.20;;;;;;;8.04;80.79;100531.36;130290;1267;108717;-78
2022/02/10 05:17:55;;;;;;;16.60;11.80;;;;;;;8.06;80.76;100531.23;130365;1267;108809;-77
2022/02/10 05:21:13;;;;;;;22.10;15.10;;;;;;;8.09;80.70;100528.31;130324;1267;108953;-76
2022/02/10 05:24:46;;;;;;;21.70;13.50;;;;;;;8.12;80.68;100519.55;130362;1267;108785;-77
2022/02/10 05:34:41;;;;;;;135.40;62.40;;;;;;;8.07;80.49;100519.99;130340;1267;108950;-77
2022/02/10 05:37:52;;;;;;;54.20;28.20;;;;;;;8.06;80.75;100520.92;130313;1267;107076;-77
2022/02/10 05:44:53;;;;;;;67.40;33.80;;;;;;;8.12;80.57;100530.21;130360;1267;108793;-77
2022/02/10 05:48:19;;;;;;;83.60;39.30;;;;;;;8.16;80.64;100530.38;130396;1267;107467;-75
2022/02/10 05:54:57;;;;;;;43.80;25.90;;;;;;;8.15;80.53;100532.98;130046;1268;108859;-77
2022/02/10 05:58:08;;;;;;;26.20;15.70;;;;;;;8.13;80.70;100540.01;130238;1267;108779;-77
2022/02/10 06:49:20;;;;;;;22.30;15.00;;;;;;;8.33;80.31;100523.06;130020;1268;108343;-78
2022/02/10 06:52:33;;;;;;;22.00;15.20;;;;;;;8.33;80.27;100528.63;130403;1267;108553;-78
2022/02/10 07:48:21;;;;;;;52.40;31.50;;;;;;;8.97;79.78;100543.81;129415;1277;108782;-79
2022/02/10 07:51:53;;;;;;;47.10;31.60;;;;;;;8.96;79.70;100546.00;129543;1276;108658;-80
2022/02/10 07:55:31;;;;;;;25.30;19.20;;;;;;;8.95;79.62;100546.78;129416;1277;109771;-81
2022/02/10 07:59:01;;;;;;;20.90;15.10;;;;;;;8.97;79.76;100539.92;129555;1277;108697;-80
2022/02/10 08:50:07;;;;;;;21.20;13.20;;;;;;;9.53;78.40;100517.27;130209;1270;107587;-81
2022/02/10 08:56:50;;;;;;;22.30;15.00;;;;;;;9.55;78.48;100513.92;130199;1270;108756;-80
2022/02/10 09:06:59;;;;;;;16.30;11.40;;;;;;;9.65;78.62;100504.13;130228;1270;108795;-80
2022/02/10 09:13:47;;;;;;;42.50;28.00;;;;;;;9.93;77.96;100498.05;129970;1270;108299;-81
2022/02/10 09:20:53;;;;;;;25.00;17.40;;;;;;;10.11;77.84;100494.52;130298;1270;107876;-79
2022/02/10 09:48:45;;;;;;;79.70;46.60;;;;;;;10.33;77.27;100479.54;130610;1267;109110;-81
2022/02/10 09:58:34;;;;;;;126.00;74.60;;;;;;;10.50;76.93;100465.44;130524;1267;107721;-81
2022/02/10 10:01:44;;;;;;;60.70;38.70;;;;;;;10.49;76.92;100461.29;130651;1267;107320;-80
2022/02/10 10:04:59;;;;;;;68.40;43.00;;;;;;;10.53;77.01;100456.30;130643;1267;107083;-80
2022/02/10 10:08:20;;;;;;;43.60;29.30;;;;;;;10.54;77.32;100447.14;130598;1267;108620;-81
2022/02/10 10:15:11;;;;;;;205.20;90.00;;;;;;;10.55;76.64;100434.31;130604;1267;108473;-81
2022/02/10 10:18:49;;;;;;;236.70;109.50;;;;;;;10.57;77.04;100429.89;130583;1267;108565;-80
2022/02/10 10:22:08;;;;;;;350.70;177.90;;;;;;;10.81;77.02;100427.96;130478;1267;108980;-79
2022/02/10 10:25:37;;;;;;;104.30;53.00;;;;;;;10.94;76.75;100422.20;130398;1267;108868;-79
2022/02/10 10:53:11;;;;;;;27.10;19.90;;;;;;;11.47;76.02;100383.98;130356;1267;107709;-81
2022/02/10 10:56:22;;;;;;;19.50;14.40;;;;;;;11.56;75.18;100383.60;130400;1267;108761;-79
2022/02/10 10:59:40;;;;;;;16.70;12.80;;;;;;;11.58;75.46;100383.92;130464;1267;108575;-82
2022/02/10 11:37:38;;;;;;;37.30;21.50;;;;;;;11.61;73.93;100317.69;129811;1273;108755;-77
2022/02/10 11:41:10;;;;;;;;;;;;;;;11.75;74.29;100310.39;130523;1267;108798;-78
2022/02/10 11:44:42;;;;;;;48.60;30.60;;;;;;;11.89;73.74;100297.19;130430;1267;109145;-79
2022/02/10 12:30:22;;;;;;;36.50;24.20;;;;;;;10.57;72.52;100256.61;130432;1267;108807;-73
2022/02/10 12:37:04;;;;;;;12.20;9.20;;;;;;;10.41;72.38;100245.83;130339;1267;107723;-75
2022/02/10 12:44:10;;;;;;;14.10;9.90;;;;;;;10.42;72.44;100230.21;130387;1267;109631;-72
2022/02/10 13:33:04;;;;;;;8.70;5.70;;;;;;;10.27;71.38;100168.98;130457;1267;108834;-73
2022/02/10 13:48:05;;;;;;;7.70;5.40;;;;;;;10.31;71.37;100159.17;130455;1267;109572;-74
2022/02/10 14:14:12;;;;;;;77.50;44.80;;;;;;;10.05;70.56;100128.42;130348;1267;108765;-74
2022/02/10 14:17:29;;;;;;;38.20;22.70;;;;;;;9.97;70.75;100131.41;130293;1267;108660;-74
2022/02/10 14:20:51;;;;;;;21.70;13.30;;;;;;;9.86;70.67;100121.63;130289;1267;108774;-73
2022/02/10 14:27:20;;;;;;;13.00;8.60;;;;;;;9.63;70.69;100114.43;130267;1267;108788;-73
2022/02/10 14:30:28;;;;;;;12.80;7.80;;;;;;;9.55;70.79;100109.55;130308;1267;108956;-73
2022/02/10 14:33:36;;;;;;;10.50;6.30;;;;;;;9.47;70.74;100097.70;130294;1267;108953;-75
2022/02/10 14:36:45;;;;;;;10.10;7.30;;;;;;;9.44;70.54;100090.92;130510;1267;108764;-73
2022/02/10 14:40:02;;;;;;;14.80;10.20;;;;;;;9.44;70.65;100086.65;130469;1267;108686;-73
2022/02/10 14:43:28;;;;;;;13.90;9.40;;;;;;;9.48;70.56;100083.80;130423;1266;108613;-74
2022/02/10 15:21:00;;;;;;;15.70;11.10;;;;;;;9.01;70.51;100049.44;130455;1267;106745;-73
2022/02/10 15:51:30;;;;;;;20.80;11.80;;;;;;;8.88;70.67;100028.17;130454;1267;108831;-72
2022/02/10 15:54:49;;;;;;;38.60;22.80;;;;;;;8.92;70.65;100022.84;130524;1267;107547;-72
2022/02/10 16:11:47;;;;;;;19.90;12.90;;;;;;;8.84;70.78;100003.23;130463;1267;108793;-71
2022/02/10 16:15:24;;;;;;;19.80;13.10;;;;;;;8.82;70.83;99996.13;130518;1267;108772;-73
2022/02/10 16:18:42;;;;;;;24.20;14.00;;;;;;;8.77;70.91;99987.88;130469;1267;108527;-72
2022/02/10 16:22:00;;;;;;;20.60;13.70;;;;;;;8.73;70.99;99984.71;130452;1267;107557;-74
2022/02/10 16:25:09;;;;;;;21.50;12.90;;;;;;;8.70;71.04;99984.35;130422;1268;108617;-73
2022/02/10 16:28:24;;;;;;;21.40;13.00;;;;;;;8.67;71.16;99981.60;130446;1267;108715;-74
2022/02/10 16:31:30;;;;;;;26.40;15.60;;;;;;;8.69;71.31;99979.13;130411;1268;108602;-72
2022/02/10 16:34:38;;;;;;;22.60;14.50;;;;;;;8.74;71.13;99977.95;130448;1267;108427;-71
2022/02/10 16:37:46;;;;;;;24.70;15.30;;;;;;;8.78;71.21;99978.39;130445;1266;108826;-73
2022/02/10 16:40:51;;;;;;;25.20;15.50;;;;;;;8.83;71.21;99976.88;130651;1267;108641;-74
2022/02/10 16:43:57;;;;;;;23.30;14.80;;;;;;;8.85;71.00;99973.17;130564;1267;107686;-76
2022/02/10 16:47:03;;;;;;;22.60;14.80;;;;;;;8.84;71.10;99972.63;130574;1268;107283;-74
2022/02/10 16:50:10;;;;;;;21.40;14.30;;;;;;;8.83;71.19;99971.65;130663;1267;108440;-75
2022/02/10 16:53:20;;;;;;;22.00;14.10;;;;;;;8.82;71.22;99965.73;130348;1268;108799;-75
2022/02/10 16:56:34;;;;;;;25.70;16.30;;;;;;;8.79;71.07;99954.02;130577;1267;107409;-76
2022/02/10 16:59:52;;;;;;;24.80;14.60;;;;;;;8.73;71.16;99947.13;130491;1268;109839;-74
2022/02/10 17:20:39;;;;;;;27.60;17.00;;;;;;;8.62;71.28;99917.38;129526;1274;117927;-74
2022/02/10 17:27:19;;;;;;;48.60;28.20;;;;;;;8.55;71.19;99909.19;130232;1271;108677;-73
2022/02/10 17:34:04;;;;;;;37.60;20.30;;;;;;;8.43;71.22;99910.17;130254;1271;108722;-74
2022/02/10 17:37:26;;;;;;;31.10;18.50;;;;;;;8.35;71.31;99898.62;130329;1271;108550;-74
2022/02/10 17:44:16;;;;;;;34.20;20.00;;;;;;;8.25;71.30;99895.11;130330;1271;108684;-75
2022/02/10 17:54:14;;;;;;;21.00;14.00;;;;;;;8.21;71.41;99888.44;130115;1270;109293;-74
2022/02/10 17:57:20;;;;;;;23.40;14.30;;;;;;;8.28;71.44;99886.93;132249;1270;108781;-74
2022/02/10 18:00:26;;;;;;;22.80;13.80;;;;;;;8.35;71.34;99889.08;130303;1270;109844;-74
2022/02/10 18:03:31;;;;;;;21.90;13.80;;;;;;;8.40;71.38;99881.89;130261;1271;108739;-73
2022/02/10 18:06:41;;;;;;;22.00;13.70;;;;;;;8.43;71.45;99883.88;130314;1271;108922;-72
2022/02/10 18:10:05;;;;;;;23.30;13.40;;;;;;;8.44;71.35;99888.59;130157;1271;108584;-74
2022/02/10 18:16:37;;;;;;;20.50;13.30;;;;;;;8.43;71.37;99883.40;130210;1270;108714;-74
2022/02/10 18:19:47;;;;;;;19.80;13.40;;;;;;;8.41;71.32;99878.80;130021;1271;107747;-73
2022/02/10 18:23:08;;;;;;;24.50;15.70;;;;;;;8.38;71.35;99877.08;130190;1269;109141;-75
2022/02/10 18:26:16;;;;;;;23.60;16.20;;;;;;;8.36;71.37;99882.98;130360;1271;108703;-74
2022/02/10 18:29:36;;;;;;;21.00;13.20;;;;;;;8.34;71.53;99884.98;130340;1271;108676;-74
2022/02/10 19:09:56;;;;;;;16.60;10.80;;;;;;;8.68;71.70;99892.73;130141;1271;109519;-74
2022/02/10 19:13:02;;;;;;;24.20;13.90;;;;;;;8.73;71.53;99902.81;130030;1271;108687;-73
2022/02/10 19:16:08;;;;;;;19.20;12.60;;;;;;;8.80;71.51;99902.85;130056;1271;107619;-74
2022/02/10 19:19:14;;;;;;;20.10;12.30;;;;;;;8.87;71.35;99906.38;130042;1271;108980;-74
2022/02/10 19:22:21;;;;;;;21.90;12.50;;;;;;;8.93;71.42;99905.34;130021;1271;108803;-74
2022/02/10 19:25:27;;;;;;;23.50;15.00;;;;;;;8.97;71.35;99908.75;130068;1271;108789;-73
2022/02/10 19:28:32;;;;;;;19.20;11.60;;;;;;;9.02;71.34;99916.67;130043;1271;108741;-72
2022/02/10 19:31:38;;;;;;;16.60;9.60;;;;;;;9.04;71.40;99921.80;130027;1270;107651;-73
2022/02/10 19:34:46;;;;;;;16.20;10.30;;;;;;;9.03;71.44;99923.23;130025;1271;108607;-74
2022/02/10 19:37:56;;;;;;;19.30;10.40;;;;;;;9.04;71.60;99931.20;130126;1271;109796;-74
2022/02/10 19:41:01;;;;;;;16.50;9.60;;;;;;;9.02;71.67;99936.86;130151;1271;109173;-75
2022/02/10 19:44:07;;;;;;;14.50;8.20;;;;;;;8.99;71.74;99941.20;130180;1271;109056;-73
2022/02/10 19:47:13;;;;;;;17.90;10.60;;;;;;;9.01;71.84;99949.53;130149;1271;109469;-73
2022/02/10 19:50:25;;;;;;;15.60;11.00;;;;;;;9.06;71.89;99952.25;130066;1271;108848;-73
2022/02/10 19:53:31;;;;;;;16.30;10.50;;;;;;;9.10;71.93;99959.89;130047;1271;108739;-76
2022/02/10 19:56:38;;;;;;;19.20;13.00;;;;;;;9.08;71.95;99966.27;130005;1271;108584;-75
2022/02/10 19:59:43;;;;;;;19.40;11.90;;;;;;;9.09;72.03;99970.40;130084;1271;108678;-78
2022/02/10 20:02:50;;;;;;;16.30;10.20;;;;;;;9.08;71.87;99972.36;130122;1271;108699;-77
2022/02/10 20:05:56;;;;;;;12.70;7.90;;;;;;;9.01;72.10;99977.01;130261;1270;108693;-72
2022/02/10 20:09:02;;;;;;;10.80;7.30;;;;;;;8.93;72.04;99978.58;130234;1270;108686;-76
2022/02/10 20:12:08;;;;;;;12.10;6.80;;;;;;;8.87;72.20;99975.64;130109;1271;108895;-76
2022/02/10 20:15:14;;;;;;;11.00;5.90;;;;;;;8.86;71.94;99973.59;130027;1271;108874;-76
2022/02/10 20:18:20;;;;;;;10.60;6.00;;;;;;;8.86;71.93;99980.52;130198;1271;108474;-74
2022/02/10 20:21:27;;;;;;;10.10;5.50;;;;;;;8.87;72.06;99981.64;130175;1271;108931;-73
2022/02/10 20:24:33;;;;;;;8.40;5.70;;;;;;;8.88;71.97;99984.73;130258;1271;108775;-73
2022/02/10 20:27:38;;;;;;;6.80;5.20;;;;;;;8.89;71.87;99982.33;130278;1271;108725;-83
2022/02/10 20:30:44;;;;;;;6.60;5.00;;;;;;;8.85;72.04;99991.16;130514;1271;107826;-81
2022/02/10 20:33:49;;;;;;;8.80;5.60;;;;;;;8.80;72.09;99996.48;130362;1271;108726;-83
2022/02/10 20:36:56;;;;;;;7.40;5.50;;;;;;;8.73;72.18;99997.34;130413;1269;107917;-84
2022/02/10 20:40:03;;;;;;;17.10;11.60;;;;;;;8.66;72.38;100006.52;130496;1271;108669;-82
2022/02/10 20:43:09;;;;;;;9.70;7.00;;;;;;;8.60;72.76;100012.61;130378;1271;108569;-82
2022/02/10 20:46:18;;;;;;;17.20;10.10;;;;;;;8.53;73.02;100015.76;130440;1271;109072;-80
2022/02/10 20:49:27;;;;;;;49.30;29.70;;;;;;;8.53;73.07;100013.47;130483;1271;108956;-84
2022/02/10 20:52:32;;;;;;;76.40;43.40;;;;;;;8.54;73.32;100016.81;130403;1271;107640;-81
2022/02/10 20:55:39;;;;;;;66.00;36.80;;;;;;;8.57;73.39;100017.15;130674;1271;108700;-83
2022/02/10 20:58:45;;;;;;;161.10;84.70;;;;;;;8.57;73.27;100020.61;130696;1271;108769;-85
2022/02/10 21:01:57;;;;;;;212.10;104.50;;;;;;;8.56;73.55;100024.28;130434;1271;109210;-86
2022/02/10 21:05:11;;;;;;;;;;;;;;;8.51;73.72;100014.51;130703;1268;108843;-84
2022/02/10 21:08:27;;;;;;;102.60;51.10;;;;;;;8.50;73.92;100018.17;130609;1268;108935;-83
2022/02/10 21:11:33;;;;;;;43.30;21.10;;;;;;;8.48;74.18;100020.52;130580;1271;108456;-83
2022/02/10 21:14:39;;;;;;;26.10;14.90;;;;;;;8.39;74.77;100026.11;130484;1271;107696;-86
2022/02/10 21:17:45;;;;;;;27.20;15.40;;;;;;;8.32;74.48;100024.06;130528;1271;107086;-83
2022/02/10 21:20:57;;;;;;;23.90;13.50;;;;;;;8.34;74.86;100028.66;130790;1268;107673;-86
2022/02/10 21:24:08;;;;;;;18.80;13.00;;;;;;;8.38;74.70;100027.20;130599;1271;108856;-87
2022/02/10 21:27:29;;;;;;;74.80;43.50;;;;;;;8.34;75.36;100025.79;130567;1271;107194;-87
2022/02/10 21:30:34;;;;;;;23.50;15.50;;;;;;;8.32;75.47;100025.34;130494;1271;107412;-87
2022/02/10 21:33:51;;;;;;;20.10;12.80;;;;;;;8.24;76.02;100027.46;130462;1271;107750;-87
2022/02/10 21:37:02;;;;;;;16.30;11.40;;;;;;;8.15;76.10;100027.45;130438;1271;107738;-88
2022/02/10 21:40:24;;;;;;;20.00;13.10;;;;;;;8.10;76.15;100028.77;130498;1271;107554;-82
2022/02/10 22:00:59;;;;;;;18.20;12.70;;;;;;;7.58;79.02;100046.59;130537;1271;108193;-81
2022/02/10 22:11:03;;;;;;;18.50;12.50;;;;;;;7.22;80.73;100066.81;130625;1268;108929;-87
2022/02/10 22:18:16;;;;;;;9.20;6.40;;;;;;;6.91;80.95;100075.05;130497;1270;107720;-88
2022/02/10 22:21:14;;;;;;;6.70;3.90;;;;;;;6.64;79.17;100088.16;130619;1271;107749;-88
2022/02/10 22:24:21;;;;;;;7.00;3.90;;;;;;;6.45;78.73;100094.56;130800;1271;107548;-88
2022/02/10 22:27:30;;;;;;;7.50;4.70;;;;;;;6.32;79.14;100104.32;130799;1271;106226;-81
2022/02/10 22:30:46;;;;;;;10.10;5.00;;;;;;;6.25;79.43;100108.01;130582;1271;108705;-84
2022/02/10 22:34:03;;;;;;;6.40;4.30;;;;;;;6.21;79.13;100110.84;130489;1270;108826;-85
2022/02/10 22:37:11;;;;;;;5.20;3.50;;;;;;;6.11;78.87;100115.53;130651;1268;108767;-83
2022/02/10 22:40:38;;;;;;;4.70;2.70;;;;;;;6.05;79.05;100113.58;131958;1268;108854;-93
2022/02/10 22:43:47;;;;;;;5.00;3.10;;;;;;;6.00;78.83;100120.88;130278;1268;107748;-86
2022/02/10 22:46:53;;;;;;;4.20;2.70;;;;;;;6.01;78.51;100125.96;130484;1268;107717;-86
2022/02/10 22:49:58;;;;;;;4.10;2.90;;;;;;;6.01;78.51;100131.79;130450;1268;107469;-86
2022/02/10 22:53:03;;;;;;;4.90;3.30;;;;;;;5.97;78.44;100141.65;130384;1268;106902;-88
2022/02/10 22:56:12;;;;;;;4.40;3.20;;;;;;;5.86;78.75;100140.35;130661;1268;107887;-94
2022/02/10 22:59:19;;;;;;;4.90;3.20;;;;;;;5.81;78.75;100139.02;130577;1269;107820;-82
2022/02/10 23:02:24;;;;;;;5.50;3.40;;;;;;;5.84;78.58;100142.31;130332;1271;108808;-81
2022/02/10 23:05:30;;;;;;;5.20;3.40;;;;;;;5.86;78.80;100147.81;130321;1271;108734;-82
2022/02/10 23:08:36;;;;;;;5.90;3.30;;;;;;;5.89;78.42;100146.45;130411;1271;107254;-82
2022/02/10 23:11:42;;;;;;;6.10;3.90;;;;;;;5.92;78.52;100149.63;130334;1270;108549;-81
2022/02/10 23:14:47;;;;;;;6.40;3.80;;;;;;;5.81;79.07;100162.32;130326;1271;108700;-82
2022/02/10 23:17:53;;;;;;;4.70;3.40;;;;;;;5.72;78.89;100168.73;130284;1271;108696;-82
2022/02/10 23:21:00;;;;;;;7.00;3.80;;;;;;;5.66;79.19;100174.64;130380;1270;108762;-83
2022/02/10 23:24:07;;;;;;;5.70;4.00;;;;;;;5.61;79.18;100183.35;130390;1271;107669;-81
2022/02/10 23:27:12;;;;;;;6.00;4.10;;;;;;;5.59;79.34;100192.54;130350;1271;108521;-80
2022/02/10 23:30:18;;;;;;;5.50;3.70;;;;;;;5.54;79.46;100199.58;130390;1271;108079;-82
2022/02/10 23:33:27;;;;;;;5.70;3.20;;;;;;;5.47;79.27;100198.70;130324;1270;108848;-81
2022/02/10 23:36:44;;;;;;;4.50;3.00;;;;;;;5.40;79.16;100200.34;130313;1271;107321;-81
2022/02/10 23:39:50;;;;;;;4.30;3.10;;;;;;;5.36;78.82;100197.87;130356;1271;108563;-81
2022/02/10 23:42:56;;;;;;;5.10;3.40;;;;;;;5.35;78.39;100197.73;130383;1269;108813;-82
2022/02/10 23:46:01;;;;;;;6.10;4.10;;;;;;;5.35;78.50;100201.31;130368;1271;108476;-82
2022/02/10 23:49:08;;;;;;;6.30;4.20;;;;;;;5.27;79.01;100203.64;130374;1271;108781;-81
2022/02/10 23:52:15;;;;;;;6.30;4.70;;;;;;;5.21;79.17;100213.14;130348;1271;108078;-81
2022/02/10 23:55:28;;;;;;;7.00;4.70;;;;;;;5.15;79.26;100218.21;130314;1271;107555;-82
2022/02/10 23:58:41;;;;;;;8.40;5.40;;;;;;;5.10;79.37;100234.07;130308;1271;108126;-81
